Time;durP1;ratioP1;P1;durP2;ratioP2;P2;SDS_P1;SDS_P2;PMS_P1;PMS_P2;Temp;Humidity;BMP_temperature;BMP_pressure;BME280_temperature;BME280_humidity;BME280_pressure;Samples;Min_cycle;Max_cycle;Signal;HPM_P1;HPM_P2
2022/10/26 00:01:19;;;;;;;9.63;3.67;;;;;;;;;;4994944;28;20072;-78
2022/10/26 00:03:46;;;;;;;11.45;3.47;;;;;;;;;;5005423;28;20023;-78
2022/10/26 00:06:16;;;;;;;8.95;4.18;;;;;;;;;;5008731;28;20485;-78
2022/10/26 00:08:42;;;;;;;8.05;4.25;;;;;;;;;;5012805;28;20026;-78
2022/10/26 00:11:09;;;;;;;11.43;4.07;;;;;;;;;;4998379;28;20068;-78
2022/10/26 00:13:35;;;;;;;8.40;3.95;;;;;;;;;;4993265;28;20034;-78
2022/10/26 00:16:07;;;;;;;10.38;4.00;;;;;;;;;;4994600;28;20030;-78
2022/10/26 00:18:33;;;;;;;9.57;4.18;;;;;;;;;;4993245;28;20121;-78
2022/10/26 00:21:03;;;;;;;18.80;4.38;;;;;;;;;;4994585;28;20070;-78
2022/10/26 00:23:30;;;;;;;14.32;4.45;;;;;;;;;;4993331;28;20048;-78
2022/10/26 00:25:56;;;;;;;16.23;4.57;;;;;;;;;;4992802;28;20446;-78
2022/10/26 00:28:22;;;;;;;10.93;4.63;;;;;;;;;;4994134;28;20018;-78
2022/10/26 00:30:48;;;;;;;12.63;5.60;;;;;;;;;;4977008;28;20101;-78
2022/10/26 00:33:14;;;;;;;9.23;4.50;;;;;;;;;;4994171;28;20465;-78
2022/10/26 00:35:41;;;;;;;13.10;4.72;;;;;;;;;;5003852;28;20029;-78
2022/10/26 00:38:07;;;;;;;13.27;4.95;;;;;;;;;;5014045;28;20037;-78
2022/10/26 00:40:33;;;;;;;14.20;5.05;;;;;;;;;;5013598;28;20034;-78
2022/10/26 00:43:00;;;;;;;13.63;4.88;;;;;;;;;;5013765;28;20333;-78
2022/10/26 00:45:30;;;;;;;11.82;4.75;;;;;;;;;;5013687;28;20032;-78
2022/10/26 00:47:58;;;;;;;9.60;4.72;;;;;;;;;;4995749;28;20025;-78
2022/10/26 00:50:36;;;;;;;13.55;5.50;;;;;;;;;;5013064;28;20022;-78
2022/10/26 00:53:04;;;;;;;11.82;4.82;;;;;;;;;;5003218;28;20046;-78
2022/10/26 00:55:35;;;;;;;11.50;5.60;;;;;;;;;;4993869;28;20053;-78
2022/10/26 00:58:02;;;;;;;10.00;5.20;;;;;;;;;;4993992;28;20101;-78
2022/10/26 01:00:28;;;;;;;10.95;5.55;;;;;;;;;;4993687;28;20033;-78
2022/10/26 01:02:57;;;;;;;13.30;6.03;;;;;;;;;;4993885;28;20049;-78
2022/10/26 01:05:23;;;;;;;12.95;6.90;;;;;;;;;;4995241;28;20021;-78
2022/10/26 01:07:50;;;;;;;16.27;6.90;;;;;;;;;;5012362;28;20037;-78
2022/10/26 01:10:17;;;;;;;12.43;6.53;;;;;;;;;;4999203;28;20035;-78
2022/10/26 01:12:43;;;;;;;15.18;6.95;;;;;;;;;;4993712;28;20100;-78
2022/10/26 01:15:10;;;;;;;16.15;7.85;;;;;;;;;;4993537;28;20041;-78
2022/10/26 01:17:46;;;;;;;15.52;6.65;;;;;;;;;;4992332;28;20030;-78
2022/10/26 01:20:18;;;;;;;13.50;6.72;;;;;;;;;;4993741;28;20038;-78
2022/10/26 01:22:51;;;;;;;20.33;7.80;;;;;;;;;;4993886;28;20026;-78
2022/10/26 01:25:37;;;;;;;13.65;6.50;;;;;;;;;;4993675;28;20026;-78
2022/10/26 01:28:07;;;;;;;24.30;6.70;;;;;;;;;;4983516;28;20112;-78
2022/10/26 01:30:39;;;;;;;15.43;6.22;;;;;;;;;;4993919;28;20023;-78
2022/10/26 01:33:18;;;;;;;13.88;6.63;;;;;;;;;;4993305;28;20019;-78
2022/10/26 01:35:50;;;;;;;14.98;6.50;;;;;;;;;;5003438;28;20026;-78
2022/10/26 01:38:30;;;;;;;18.05;6.72;;;;;;;;;;5011742;28;20033;-78
2022/10/26 01:41:00;;;;;;;16.08;6.63;;;;;;;;;;5013038;28;20030;-78
2022/10/26 01:43:28;;;;;;;12.10;6.43;;;;;;;;;;5012910;28;20022;-78
2022/10/26 01:45:54;;;;;;;15.27;6.60;;;;;;;;;;5012855;28;20465;-78
2022/10/26 01:48:21;;;;;;;11.68;6.50;;;;;;;;;;5013234;28;20381;-78
2022/10/26 01:50:50;;;;;;;11.52;6.22;;;;;;;;;;5012884;28;20366;-78
2022/10/26 01:53:16;;;;;;;12.13;5.80;;;;;;;;;;5012588;28;20061;-78
2022/10/26 01:55:53;;;;;;;12.43;5.82;;;;;;;;;;5012719;28;20037;-78
2022/10/26 01:58:37;;;;;;;12.02;6.47;;;;;;;;;;5012730;28;20022;-78
2022/10/26 02:01:13;;;;;;;13.50;6.13;;;;;;;;;;5015245;28;20389;-78
2022/10/26 02:03:50;;;;;;;15.65;6.78;;;;;;;;;;5011969;28;20077;-78
2022/10/26 02:06:22;;;;;;;13.40;6.80;;;;;;;;;;5012091;28;20080;-79
2022/10/26 02:08:48;;;;;;;;;;;;;;;;;;4998114;28;20429;-80
2022/10/26 02:11:14;;;;;;;14.68;6.20;;;;;;;;;;4997163;28;19910;-79
2022/10/26 02:13:44;;;;;;;17.55;5.75;;;;;;;;;;4996687;28;20377;-79
2022/10/26 02:16:23;;;;;;;17.00;6.45;;;;;;;;;;4995665;28;20470;-79
2022/10/26 02:18:52;;;;;;;13.30;6.45;;;;;;;;;;4997034;28;20030;-79
2022/10/26 02:21:24;;;;;;;15.30;6.43;;;;;;;;;;4996763;28;20030;-79
2022/10/26 02:23:50;;;;;;;;;;;;;;;;;;4979655;28;20041;-77
2022/10/26 02:26:19;;;;;;;12.77;6.07;;;;;;;;;;4996697;28;19906;-79
2022/10/26 02:28:48;;;;;;;11.80;6.20;;;;;;;;;;4979303;28;20023;-80
2022/10/26 02:31:15;;;;;;;12.45;5.68;;;;;;;;;;4979028;28;20034;-79
2022/10/26 02:33:44;;;;;;;15.45;5.88;;;;;;;;;;4996733;28;20174;-79
2022/10/26 02:36:12;;;;;;;12.48;6.60;;;;;;;;;;5010162;28;20431;-79
2022/10/26 02:38:39;;;;;;;15.95;6.80;;;;;;;;;;5016089;28;20021;-79
2022/10/26 02:41:06;;;;;;;13.30;6.78;;;;;;;;;;5014506;28;20034;-77
2022/10/26 02:43:36;;;;;;;19.38;7.05;;;;;;;;;;4998693;28;20026;-79
2022/10/26 02:46:05;;;;;;;14.32;6.60;;;;;;;;;;5015958;28;20029;-79
2022/10/26 02:48:31;;;;;;;10.43;6.10;;;;;;;;;;5014363;28;20030;-79
2022/10/26 02:51:04;;;;;;;12.82;6.18;;;;;;;;;;5014408;28;20473;-79
2022/10/26 02:53:33;;;;;;;11.38;5.85;;;;;;;;;;5001648;28;20482;-77
2022/10/26 02:56:02;;;;;;;12.70;5.43;;;;;;;;;;4996302;28;20034;-79
2022/10/26 02:58:30;;;;;;;13.02;4.97;;;;;;;;;;4996438;28;20018;-79
2022/10/26 03:00:57;;;;;;;10.10;5.30;;;;;;;;;;4995894;28;20414;-80
2022/10/26 03:03:23;;;;;;;8.68;4.45;;;;;;;;;;4992697;28;20542;-79
2022/10/26 03:05:49;;;;;;;12.65;5.05;;;;;;;;;;5009628;28;20531;-80
2022/10/26 03:08:15;;;;;;;8.55;4.30;;;;;;;;;;5001167;28;20034;-80
2022/10/26 03:10:42;;;;;;;10.98;4.55;;;;;;;;;;4978428;28;20042;-80
2022/10/26 03:13:09;;;;;;;16.13;4.82;;;;;;;;;;4995554;28;20027;-81
2022/10/26 03:15:35;;;;;;;13.77;5.13;;;;;;;;;;4995830;28;20026;-79
2022/10/26 03:18:01;;;;;;;11.30;4.80;;;;;;;;;;4995845;28;20038;-80
2022/10/26 03:20:27;;;;;;;11.75;4.88;;;;;;;;;;4995874;28;20022;-80
2022/10/26 03:22:55;;;;;;;9.85;4.25;;;;;;;;;;4995645;28;20061;-80
2022/10/26 03:25:22;;;;;;;11.90;5.18;;;;;;;;;;4995675;28;20042;-80
2022/10/26 03:27:55;;;;;;;11.48;4.95;;;;;;;;;;4977747;28;20041;-80
2022/10/26 03:30:21;;;;;;;13.40;5.72;;;;;;;;;;4995903;28;20457;-80
2022/10/26 03:32:47;;;;;;;11.38;5.47;;;;;;;;;;4978149;28;20409;-80
2022/10/26 03:35:13;;;;;;;15.02;6.75;;;;;;;;;;4984115;28;20100;-80
2022/10/26 03:37:39;;;;;;;19.10;6.82;;;;;;;;;;5014692;28;20038;-79
2022/10/26 03:40:05;;;;;;;13.40;5.78;;;;;;;;;;5014927;28;20018;-80
2022/10/26 03:42:38;;;;;;;15.23;5.07;;;;;;;;;;5014909;28;20029;-79
2022/10/26 03:45:04;;;;;;;12.38;5.18;;;;;;;;;;5014925;28;20021;-79
2022/10/26 03:47:30;;;;;;;11.40;5.60;;;;;;;;;;4997158;28;20400;-79
2022/10/26 03:49:56;;;;;;;11.32;5.13;;;;;;;;;;4997572;28;20428;-79
2022/10/26 03:52:23;;;;;;;10.50;4.93;;;;;;;;;;4997039;28;20033;-79
2022/10/26 03:54:49;;;;;;;8.20;4.25;;;;;;;;;;4997247;28;20042;-79
2022/10/26 03:57:15;;;;;;;13.98;4.50;;;;;;;;;;5014281;28;20057;-79
2022/10/26 03:59:41;;;;;;;11.55;4.65;;;;;;;;;;5010159;28;20048;-79
2022/10/26 04:02:07;;;;;;;12.88;5.07;;;;;;;;;;5014391;28;20452;-79
2022/10/26 04:04:34;;;;;;;10.32;5.28;;;;;;;;;;5013207;28;20381;-79
2022/10/26 04:07:00;;;;;;;11.85;5.00;;;;;;;;;;5011356;28;20030;-79
2022/10/26 04:09:26;;;;;;;13.98;4.53;;;;;;;;;;5000745;28;20030;-79
2022/10/26 04:11:52;;;;;;;14.90;5.03;;;;;;;;;;5013992;28;20452;-79
2022/10/26 04:14:18;;;;;;;12.60;4.82;;;;;;;;;;5014138;28;20028;-79
2022/10/26 04:16:44;;;;;;;12.38;5.22;;;;;;;;;;5013751;28;20026;-79
2022/10/26 04:19:10;;;;;;;12.98;5.10;;;;;;;;;;5013926;28;20148;-79
2022/10/26 04:21:36;;;;;;;12.88;5.35;;;;;;;;;;5013787;28;20477;-79
2022/10/26 04:24:02;;;;;;;12.77;4.93;;;;;;;;;;5013033;28;20030;-79
2022/10/26 04:26:28;;;;;;;10.32;4.85;;;;;;;;;;5014015;28;20026;-79
2022/10/26 04:28:54;;;;;;;13.95;5.70;;;;;;;;;;5013115;28;20054;-79
2022/10/26 04:31:20;;;;;;;9.82;5.43;;;;;;;;;;5013416;28;20520;-79
2022/10/26 04:33:46;;;;;;;14.15;5.38;;;;;;;;;;5011832;28;20029;-79
2022/10/26 04:36:13;;;;;;;13.20;5.70;;;;;;;;;;5013165;28;20101;-79
2022/10/26 04:38:39;;;;;;;18.60;5.93;;;;;;;;;;5012952;28;20042;-79
2022/10/26 04:41:05;;;;;;;18.13;6.07;;;;;;;;;;5013201;28;20034;-79
2022/10/26 04:43:31;;;;;;;16.33;6.28;;;;;;;;;;5011468;28;20034;-79
2022/10/26 04:45:57;;;;;;;19.70;5.13;;;;;;;;;;5013322;28;20029;-79
2022/10/26 04:48:23;;;;;;;12.10;5.47;;;;;;;;;;5013065;28;20488;-79
2022/10/26 04:50:49;;;;;;;14.82;5.55;;;;;;;;;;5012982;28;20041;-79
2022/10/26 04:53:16;;;;;;;14.35;5.47;;;;;;;;;;5002451;28;20037;-79
2022/10/26 04:55:42;;;;;;;17.27;5.63;;;;;;;;;;4995386;28;20057;-79
2022/10/26 04:58:08;;;;;;;10.20;5.32;;;;;;;;;;5013660;28;20034;-79
2022/10/26 05:00:35;;;;;;;14.45;5.20;;;;;;;;;;5013583;28;20069;-79
2022/10/26 05:03:04;;;;;;;15.90;5.28;;;;;;;;;;5013316;28;20451;-79
2022/10/26 05:05:31;;;;;;;11.63;4.90;;;;;;;;;;5001986;28;20025;-79
2022/10/26 05:07:58;;;;;;;13.00;5.70;;;;;;;;;;5000808;28;20389;-79
2022/10/26 05:10:24;;;;;;;12.73;5.22;;;;;;;;;;5004417;28;20054;-79
2022/10/26 05:12:54;;;;;;;11.98;5.57;;;;;;;;;;5013073;28;20033;-79
2022/10/26 05:15:20;;;;;;;15.13;6.10;;;;;;;;;;5013202;28;20072;-79
2022/10/26 05:17:46;;;;;;;12.77;5.20;;;;;;;;;;5013023;28;20025;-79
2022/10/26 05:20:13;;;;;;;9.38;5.30;;;;;;;;;;5013199;28;20029;-79
2022/10/26 05:22:39;;;;;;;12.45;5.15;;;;;;;;;;5011997;28;20030;-79
2022/10/26 05:25:06;;;;;;;14.70;5.82;;;;;;;;;;5012980;28;20033;-79
2022/10/26 05:27:32;;;;;;;13.02;5.00;;;;;;;;;;5013051;28;20129;-79
2022/10/26 05:29:58;;;;;;;8.07;4.70;;;;;;;;;;4995120;28;20057;-79
2022/10/26 05:32:24;;;;;;;16.70;5.20;;;;;;;;;;4995807;28;20373;-79
2022/10/26 05:34:50;;;;;;;11.82;5.10;;;;;;;;;;5012668;28;20034;-79
2022/10/26 05:37:16;;;;;;;11.23;5.32;;;;;;;;;;5012863;28;20054;-79
2022/10/26 05:39:42;;;;;;;14.23;5.00;;;;;;;;;;5012746;28;20034;-79
2022/10/26 05:42:08;;;;;;;9.95;5.15;;;;;;;;;;4995608;28;20389;-79
2022/10/26 05:44:34;;;;;;;11.43;4.80;;;;;;;;;;5012939;28;20499;-79
2022/10/26 05:47:00;;;;;;;10.77;4.88;;;;;;;;;;5013234;28;20045;-79
2022/10/26 05:49:26;;;;;;;12.98;5.32;;;;;;;;;;5012706;28;20457;-79
2022/10/26 05:51:52;;;;;;;11.23;4.40;;;;;;;;;;5012185;28;20408;-79
2022/10/26 05:54:19;;;;;;;9.73;5.03;;;;;;;;;;4958983;28;20101;-79
2022/10/26 05:56:45;;;;;;;9.35;4.80;;;;;;;;;;4993296;28;20474;-79
2022/10/26 05:59:12;;;;;;;10.32;4.13;;;;;;;;;;4993361;28;20504;-79
2022/10/26 06:01:44;;;;;;;7.40;4.40;;;;;;;;;;4993374;28;20081;-79
2022/10/26 06:04:34;;;;;;;8.63;4.63;;;;;;;;;;4993211;28;20066;-79
2022/10/26 06:07:00;;;;;;;15.15;4.68;;;;;;;;;;4997920;28;20046;-79
2022/10/26 06:09:26;;;;;;;13.38;4.95;;;;;;;;;;5012783;28;20053;-79
2022/10/26 06:11:52;;;;;;;11.52;5.20;;;;;;;;;;5012594;28;20100;-79
2022/10/26 06:14:19;;;;;;;9.98;4.88;;;;;;;;;;5012784;28;20022;-79
2022/10/26 06:17:00;;;;;;;10.57;5.60;;;;;;;;;;5012930;28;20026;-79
2022/10/26 06:19:40;;;;;;;8.82;5.25;;;;;;;;;;5012728;28;20492;-79
2022/10/26 06:22:15;;;;;;;17.90;5.32;;;;;;;;;;5012676;28;20388;-79
2022/10/26 06:24:53;;;;;;;14.35;5.40;;;;;;;;;;4994396;28;20033;-79
2022/10/26 06:27:28;;;;;;;15.55;5.07;;;;;;;;;;5012308;28;20026;-79
2022/10/26 06:29:57;;;;;;;8.45;5.15;;;;;;;;;;5010597;28;20045;-79
2022/10/26 06:32:24;;;;;;;15.55;5.55;;;;;;;;;;5011142;28;20018;-79
2022/10/26 06:34:52;;;;;;;18.15;5.80;;;;;;;;;;5012015;28;20037;-80
2022/10/26 06:37:20;;;;;;;12.20;5.05;;;;;;;;;;5006439;28;20034;-79
2022/10/26 06:39:47;;;;;;;12.20;5.10;;;;;;;;;;5002985;28;20022;-79
2022/10/26 06:42:13;;;;;;;14.82;6.00;;;;;;;;;;4984481;28;20033;-79
2022/10/26 06:44:40;;;;;;;11.90;4.80;;;;;;;;;;4990395;28;20153;-79
2022/10/26 06:47:08;;;;;;;12.60;5.25;;;;;;;;;;5002820;28;20037;-83
2022/10/26 06:49:40;;;;;;;15.60;5.38;;;;;;;;;;4985320;28;20026;-83
2022/10/26 06:52:06;;;;;;;12.45;4.53;;;;;;;;;;5009700;28;20033;-83
2022/10/26 06:54:43;;;;;;;13.23;4.75;;;;;;;;;;5007180;28;20029;-84
2022/10/26 06:57:10;;;;;;;15.00;4.57;;;;;;;;;;5008629;28;20037;-83
2022/10/26 06:59:51;;;;;;;12.00;4.45;;;;;;;;;;4990568;28;20431;-83
2022/10/26 07:02:17;;;;;;;8.95;4.40;;;;;;;;;;5011142;28;20034;-83
2022/10/26 07:04:44;;;;;;;10.30;5.18;;;;;;;;;;4994605;28;20085;-83
2022/10/26 07:07:18;;;;;;;10.10;4.68;;;;;;;;;;5003405;28;20495;-83
2022/10/26 07:09:44;;;;;;;12.20;5.25;;;;;;;;;;5006997;28;20033;-84
2022/10/26 07:12:10;;;;;;;8.85;4.80;;;;;;;;;;5005633;28;20559;-84
2022/10/26 07:14:36;;;;;;;9.27;4.70;;;;;;;;;;5015481;28;21525;-84
2022/10/26 07:17:02;;;;;;;10.88;4.80;;;;;;;;;;5015491;28;20034;-83
2022/10/26 07:19:28;;;;;;;14.30;4.75;;;;;;;;;;5015406;28;20112;-83
2022/10/26 07:21:59;;;;;;;9.18;4.07;;;;;;;;;;4993358;28;20050;-83
2022/10/26 07:24:25;;;;;;;12.68;3.67;;;;;;;;;;5010915;28;20026;-83
2022/10/26 07:26:54;;;;;;;7.30;3.15;;;;;;;;;;5001232;28;20033;-83
2022/10/26 07:29:20;;;;;;;8.85;3.53;;;;;;;;;;5007251;28;20501;-83
2022/10/26 07:31:46;;;;;;;8.25;3.38;;;;;;;;;;5002880;28;20456;-83
2022/10/26 07:34:12;;;;;;;6.60;2.95;;;;;;;;;;4990381;28;20511;-83
2022/10/26 07:36:38;;;;;;;6.53;2.60;;;;;;;;;;4983509;28;20080;-84
2022/10/26 07:39:04;;;;;;;6.05;2.42;;;;;;;;;;4990889;28;20480;-83
2022/10/26 07:41:31;;;;;;;5.50;2.45;;;;;;;;;;4988958;28;20042;-83
2022/10/26 07:43:57;;;;;;;10.52;2.45;;;;;;;;;;5012799;28;20424;-84
2022/10/26 07:46:23;;;;;;;8.50;2.50;;;;;;;;;;5004452;28;20092;-84
2022/10/26 07:48:49;;;;;;;9.98;2.53;;;;;;;;;;4974242;28;20058;-83
2022/10/26 07:51:16;;;;;;;9.00;2.60;;;;;;;;;;4992861;28;20037;-84
2022/10/26 07:53:42;;;;;;;11.13;2.33;;;;;;;;;;4987425;28;20062;-84
2022/10/26 07:56:09;;;;;;;6.60;2.45;;;;;;;;;;4996934;28;20075;-84
2022/10/26 07:58:35;;;;;;;8.65;2.67;;;;;;;;;;5004625;28;20022;-83
2022/10/26 08:01:07;;;;;;;7.63;2.65;;;;;;;;;;5010194;28;20134;-83
2022/10/26 08:03:33;;;;;;;5.95;2.25;;;;;;;;;;5006854;28;20124;-84
2022/10/26 08:06:00;;;;;;;3.10;1.90;;;;;;;;;;4995449;28;20458;-83
2022/10/26 08:08:26;;;;;;;5.78;2.40;;;;;;;;;;4995839;28;20119;-83
2022/10/26 08:10:52;;;;;;;5.25;2.28;;;;;;;;;;4987635;28;20038;-83
2022/10/26 08:13:18;;;;;;;11.80;2.13;;;;;;;;;;5000886;28;20050;-83
2022/10/26 08:15:44;;;;;;;4.40;2.20;;;;;;;;;;4996523;28;20101;-83
2022/10/26 08:18:11;;;;;;;5.55;2.80;;;;;;;;;;5021018;28;20037;-83
2022/10/26 08:20:37;;;;;;;8.70;2.60;;;;;;;;;;5003592;28;20030;-83
2022/10/26 08:23:05;;;;;;;7.47;2.55;;;;;;;;;;5004533;28;20468;-83
2022/10/26 08:25:31;;;;;;;12.75;2.35;;;;;;;;;;5013922;28;20455;-83
2022/10/26 08:28:00;;;;;;;6.47;2.17;;;;;;;;;;4995833;28;20038;-84
2022/10/26 08:30:27;;;;;;;5.50;2.25;;;;;;;;;;5008730;28;20018;-84
2022/10/26 08:32:58;;;;;;;6.15;2.45;;;;;;;;;;4996301;28;20052;-83
2022/10/26 08:35:24;;;;;;;4.18;2.50;;;;;;;;;;4996038;28;20022;-84
2022/10/26 08:37:51;;;;;;;7.22;2.92;;;;;;;;;;4996198;28;20033;-84
2022/10/26 08:40:19;;;;;;;8.23;2.53;;;;;;;;;;5014101;28;20029;-83
2022/10/26 08:42:47;;;;;;;5.95;2.40;;;;;;;;;;5012816;28;20022;-84
2022/10/26 08:45:23;;;;;;;6.60;3.00;;;;;;;;;;4995402;28;20033;-84
2022/10/26 08:47:52;;;;;;;11.10;2.72;;;;;;;;;;5026271;28;20080;-82
2022/10/26 08:50:25;;;;;;;4.63;2.50;;;;;;;;;;5016068;28;20014;-82
2022/10/26 08:53:01;;;;;;;6.03;2.40;;;;;;;;;;5015639;28;20037;-82
2022/10/26 08:55:32;;;;;;;7.20;2.78;;;;;;;;;;4999234;28;20049;-83
2022/10/26 08:58:00;;;;;;;7.07;3.17;;;;;;;;;;5012500;28;20030;-83
2022/10/26 09:00:29;;;;;;;11.55;2.78;;;;;;;;;;4997519;28;20045;-83
2022/10/26 09:02:56;;;;;;;6.15;2.95;;;;;;;;;;4997628;28;20034;-83
2022/10/26 09:05:25;;;;;;;6.70;2.58;;;;;;;;;;4983972;28;20033;-83
2022/10/26 09:07:51;;;;;;;6.00;2.40;;;;;;;;;;5014172;28;20037;-83
2022/10/26 09:10:35;;;;;;;7.57;3.03;;;;;;;;;;5013076;28;20096;-83
2022/10/26 09:13:05;;;;;;;12.73;3.20;;;;;;;;;;5009841;28;20480;-83
2022/10/26 09:15:34;;;;;;;5.10;2.80;;;;;;;;;;5004280;28;20025;-83
2022/10/26 09:18:19;;;;;;;8.07;2.95;;;;;;;;;;5005996;28;20108;-83
2022/10/26 09:21:07;;;;;;;8.20;3.22;;;;;;;;;;5012760;28;20100;-83
2022/10/26 09:23:33;;;;;;;8.18;3.28;;;;;;;;;;4994930;28;20516;-83
2022/10/26 09:26:04;;;;;;;7.80;2.88;;;;;;;;;;5012804;28;20098;-83
2022/10/26 09:28:50;;;;;;;7.45;3.08;;;;;;;;;;5012110;28;20112;-84
2022/10/26 09:31:16;;;;;;;8.55;3.17;;;;;;;;;;4992875;28;20081;-83
2022/10/26 09:33:42;;;;;;;7.78;3.13;;;;;;;;;;4991665;28;20050;-83
2022/10/26 09:36:13;;;;;;;6.97;3.28;;;;;;;;;;4984674;28;20026;-83
2022/10/26 09:38:41;;;;;;;7.50;3.03;;;;;;;;;;4998304;28;20412;-83
2022/10/26 09:41:20;;;;;;;12.23;3.20;;;;;;;;;;4997607;28;20029;-83
2022/10/26 09:43:49;;;;;;;11.18;3.50;;;;;;;;;;5000578;28;20048;-82
2022/10/26 09:46:18;;;;;;;11.07;3.17;;;;;;;;;;5002419;28;20105;-83
2022/10/26 09:49:13;;;;;;;7.78;3.03;;;;;;;;;;5000760;28;20026;-83
2022/10/26 09:51:41;;;;;;;7.28;3.05;;;;;;;;;;4971395;28;20033;-84
2022/10/26 09:54:16;;;;;;;7.57;3.17;;;;;;;;;;4992024;28;20062;-84
2022/10/26 09:56:44;;;;;;;9.88;3.83;;;;;;;;;;4992060;28;20031;-84
2022/10/26 09:59:10;;;;;;;9.60;2.83;;;;;;;;;;4998556;28;20033;-84
2022/10/26 10:01:36;;;;;;;9.75;2.83;;;;;;;;;;4995057;28;20033;-83
2022/10/26 10:04:12;;;;;;;8.20;3.05;;;;;;;;;;4978931;28;20373;-84
2022/10/26 10:06:38;;;;;;;6.47;2.67;;;;;;;;;;5012932;28;20026;-84
2022/10/26 10:09:15;;;;;;;17.15;3.60;;;;;;;;;;4994961;28;20041;-83
2022/10/26 10:11:53;;;;;;;9.10;3.22;;;;;;;;;;5012912;28;20376;-84
2022/10/26 10:14:20;;;;;;;8.07;3.25;;;;;;;;;;4994258;28;20022;-84
2022/10/26 10:16:51;;;;;;;8.90;2.83;;;;;;;;;;5000107;28;20512;-84
2022/10/26 10:19:21;;;;;;;10.73;3.40;;;;;;;;;;4991973;28;20061;-84
2022/10/26 10:21:51;;;;;;;8.35;2.70;;;;;;;;;;4994049;28;20026;-84
2022/10/26 10:24:24;;;;;;;11.93;3.22;;;;;;;;;;4979662;28;20022;-83
2022/10/26 10:26:50;;;;;;;;;;;;;;;;;;4997686;28;20022;-83
2022/10/26 10:29:16;;;;;;;4.97;2.65;;;;;;;;;;5009969;28;20011;-83
2022/10/26 10:31:51;;;;;;;9.27;3.30;;;;;;;;;;5015988;28;20431;-83
2022/10/26 10:34:17;;;;;;;10.52;3.17;;;;;;;;;;5016296;28;20105;-83
2022/10/26 10:36:43;;;;;;;10.27;2.83;;;;;;;;;;5004307;28;20030;-83
2022/10/26 10:39:29;;;;;;;7.68;3.15;;;;;;;;;;4995328;28;20061;-83
2022/10/26 10:41:56;;;;;;;9.60;2.97;;;;;;;;;;5015507;28;20491;-84
2022/10/26 10:44:32;;;;;;;8.88;3.40;;;;;;;;;;5016360;28;20022;-83
2022/10/26 10:47:05;;;;;;;10.77;3.72;;;;;;;;;;5016350;28;20030;-84
2022/10/26 10:49:32;;;;;;;5.80;2.85;;;;;;;;;;4996197;28;20035;-83
2022/10/26 10:51:58;;;;;;;5.47;2.50;;;;;;;;;;5000902;28;20053;-83
2022/10/26 10:54:27;;;;;;;8.13;2.67;;;;;;;;;;4997931;28;20046;-83
2022/10/26 10:56:58;;;;;;;7.43;2.50;;;;;;;;;;5016016;28;20484;-84
2022/10/26 10:59:45;;;;;;;8.13;2.72;;;;;;;;;;5015790;28;20025;-83
2022/10/26 11:02:14;;;;;;;6.63;2.45;;;;;;;;;;4978916;28;20034;-83
2022/10/26 11:04:46;;;;;;;5.97;2.30;;;;;;;;;;4996074;28;20033;-82
2022/10/26 11:07:13;;;;;;;10.38;3.10;;;;;;;;;;5002937;28;20022;-82
2022/10/26 11:09:41;;;;;;;5.90;2.35;;;;;;;;;;4998057;28;20042;-82
2022/10/26 11:12:09;;;;;;;7.55;2.60;;;;;;;;;;5015449;28;20034;-82
2022/10/26 11:14:40;;;;;;;4.93;2.65;;;;;;;;;;5015415;28;20472;-82
2022/10/26 11:17:12;;;;;;;5.63;2.20;;;;;;;;;;5014684;28;20174;-82
2022/10/26 11:19:38;;;;;;;;;;;;;;;;;;5015349;28;20127;-82
2022/10/26 11:22:05;;;;;;;5.28;2.40;;;;;;;;;;4997019;28;19941;-82
2022/10/26 11:24:35;;;;;;;9.60;2.42;;;;;;;;;;5015205;28;20025;-82
2022/10/26 11:27:10;;;;;;;9.85;2.60;;;;;;;;;;5014523;28;20026;-81
2022/10/26 11:29:55;;;;;;;6.53;2.72;;;;;;;;;;5013277;28;20030;-79
2022/10/26 11:32:40;;;;;;;6.13;2.60;;;;;;;;;;4996842;28;20072;-81
2022/10/26 11:35:15;;;;;;;11.93;3.50;;;;;;;;;;4997631;28;20163;-81
2022/10/26 11:37:41;;;;;;;10.35;2.88;;;;;;;;;;4997670;28;20026;-81
2022/10/26 11:40:26;;;;;;;15.23;3.33;;;;;;;;;;5015146;28;20476;-81
2022/10/26 11:43:12;;;;;;;6.95;3.08;;;;;;;;;;5015349;28;20053;-83
2022/10/26 11:45:41;;;;;;;6.70;2.75;;;;;;;;;;4978767;28;20105;-83
2022/10/26 11:48:16;;;;;;;11.70;3.35;;;;;;;;;;4997496;28;20026;-82
2022/10/26 11:50:44;;;;;;;7.32;3.25;;;;;;;;;;4983691;28;20054;-83
2022/10/26 11:53:10;;;;;;;8.45;2.78;;;;;;;;;;5012542;28;20115;-82
2022/10/26 11:55:37;;;;;;;6.00;3.30;;;;;;;;;;4995549;28;20081;-82
2022/10/26 11:58:04;;;;;;;8.50;3.47;;;;;;;;;;4997601;28;20042;-83
2022/10/26 12:00:31;;;;;;;5.72;2.78;;;;;;;;;;5013688;28;20030;-82
2022/10/26 12:03:07;;;;;;;7.10;3.10;;;;;;;;;;5011446;28;20706;-83
2022/10/26 12:05:52;;;;;;;9.27;3.03;;;;;;;;;;5012870;28;20033;-83
2022/10/26 12:08:24;;;;;;;9.52;2.63;;;;;;;;;;4996918;28;20125;-83
2022/10/26 12:10:55;;;;;;;6.05;2.80;;;;;;;;;;5014725;28;20153;-83
2022/10/26 12:13:35;;;;;;;5.93;2.40;;;;;;;;;;4996692;28;20100;-83
2022/10/26 12:16:01;;;;;;;10.32;3.10;;;;;;;;;;4996417;28;20037;-83
2022/10/26 12:18:38;;;;;;;10.63;2.90;;;;;;;;;;5014054;28;20030;-83
2022/10/26 12:21:06;;;;;;;14.25;2.40;;;;;;;;;;4996476;28;20030;-83
2022/10/26 12:23:52;;;;;;;6.15;3.20;;;;;;;;;;4996419;28;20225;-79
2022/10/26 12:26:27;;;;;;;6.95;3.00;;;;;;;;;;5014214;28;20026;-81
2022/10/26 12:29:14;;;;;;;9.27;2.40;;;;;;;;;;4995600;28;20065;-80
2022/10/26 12:31:42;;;;;;;6.32;2.45;;;;;;;;;;5013610;28;20022;-80
2022/10/26 12:34:13;;;;;;;8.35;2.95;;;;;;;;;;5013267;28;20029;-80
2022/10/26 12:36:54;;;;;;;10.45;2.70;;;;;;;;;;4993177;28;20022;-80
2022/10/26 12:39:31;;;;;;;8.52;2.70;;;;;;;;;;5012094;28;20053;-82
2022/10/26 12:41:59;;;;;;;6.38;2.70;;;;;;;;;;5013929;28;20034;-82
2022/10/26 12:44:46;;;;;;;6.22;2.88;;;;;;;;;;5012794;28;20021;-82
2022/10/26 12:47:27;;;;;;;6.68;2.65;;;;;;;;;;5013862;28;20029;-82
2022/10/26 12:49:59;;;;;;;5.38;2.70;;;;;;;;;;4986714;28;20030;-82
2022/10/26 12:52:40;;;;;;;8.35;2.25;;;;;;;;;;4996612;28;20055;-82
2022/10/26 12:55:12;;;;;;;6.63;2.33;;;;;;;;;;4993670;28;20069;-82
2022/10/26 12:57:38;;;;;;;6.70;2.40;;;;;;;;;;4994410;28;20022;-81
2022/10/26 13:00:05;;;;;;;4.60;2.00;;;;;;;;;;4995166;28;20408;-81
2022/10/26 13:02:50;;;;;;;5.75;2.58;;;;;;;;;;5001681;28;20045;-81
2022/10/26 13:05:34;;;;;;;5.90;2.08;;;;;;;;;;5013461;28;20109;-81
2022/10/26 13:08:12;;;;;;;7.55;2.00;;;;;;;;;;4993894;28;20038;-79
2022/10/26 13:10:40;;;;;;;6.03;2.00;;;;;;;;;;4993936;28;20026;-80
2022/10/26 13:13:07;;;;;;;4.90;1.60;;;;;;;;;;4976701;28;20022;-81
2022/10/26 13:15:33;;;;;;;7.30;2.03;;;;;;;;;;4979158;28;20033;-81
2022/10/26 13:18:00;;;;;;;9.23;2.30;;;;;;;;;;4993919;28;20113;-81
2022/10/26 13:20:26;;;;;;;5.13;2.00;;;;;;;;;;4993992;28;20084;-81
2022/10/26 13:22:53;;;;;;;5.35;2.10;;;;;;;;;;4993755;28;20053;-81
2022/10/26 13:25:27;;;;;;;6.65;1.90;;;;;;;;;;4997609;28;20022;-81
2022/10/26 13:27:59;;;;;;;5.70;2.10;;;;;;;;;;4999300;28;20372;-81
2022/10/26 13:30:34;;;;;;;6.45;1.90;;;;;;;;;;5012227;28;20468;-81
2022/10/26 13:33:02;;;;;;;5.93;2.15;;;;;;;;;;4987964;28;20030;-81
2022/10/26 13:35:31;;;;;;;5.93;2.08;;;;;;;;;;5009648;28;20014;-81
2022/10/26 13:37:57;;;;;;;6.50;2.28;;;;;;;;;;4992056;28;20109;-81
2022/10/26 13:40:25;;;;;;;9.32;2.55;;;;;;;;;;4995243;28;20104;-81
2022/10/26 13:42:54;;;;;;;4.35;2.40;;;;;;;;;;4993599;28;20388;-81
2022/10/26 13:45:22;;;;;;;7.13;2.35;;;;;;;;;;5002537;28;20691;-81
2022/10/26 13:47:48;;;;;;;7.20;2.30;;;;;;;;;;4998590;28;20041;-81
2022/10/26 13:50:16;;;;;;;9.30;2.80;;;;;;;;;;4995126;28;20038;-81
2022/10/26 13:52:44;;;;;;;6.40;3.08;;;;;;;;;;5000624;28;20030;-81
2022/10/26 13:55:22;;;;;;;4.28;2.65;;;;;;;;;;5008344;28;20040;-81
2022/10/26 13:58:04;;;;;;;9.52;2.40;;;;;;;;;;5012997;28;20022;-83
2022/10/26 14:00:31;;;;;;;4.67;2.60;;;;;;;;;;5015685;28;20022;-82
2022/10/26 14:02:57;;;;;;;6.93;2.88;;;;;;;;;;5007179;28;20354;-83
2022/10/26 14:05:23;;;;;;;13.18;2.90;;;;;;;;;;5008674;28;20021;-82
2022/10/26 14:07:51;;;;;;;9.05;2.95;;;;;;;;;;5010460;28;20401;-82
2022/10/26 14:10:32;;;;;;;7.93;3.28;;;;;;;;;;4997226;28;20349;-82
2022/10/26 14:12:58;;;;;;;10.25;3.03;;;;;;;;;;4997362;28;20094;-82
2022/10/26 14:15:26;;;;;;;7.13;3.15;;;;;;;;;;4996581;28;20045;-82
2022/10/26 14:17:53;;;;;;;7.15;3.30;;;;;;;;;;4979532;28;20142;-82
2022/10/26 14:20:21;;;;;;;10.55;3.60;;;;;;;;;;4995505;28;20030;-82
2022/10/26 14:22:47;;;;;;;5.72;3.28;;;;;;;;;;4979855;28;20023;-82
2022/10/26 14:25:31;;;;;;;10.52;3.72;;;;;;;;;;4997765;28;20101;-81
2022/10/26 14:27:58;;;;;;;6.45;3.05;;;;;;;;;;5010118;28;20033;-81
2022/10/26 14:30:24;;;;;;;7.63;3.28;;;;;;;;;;4993562;28;20026;-81
2022/10/26 14:32:50;;;;;;;9.85;3.28;;;;;;;;;;4999190;28;20083;-81
2022/10/26 14:35:17;;;;;;;7.38;3.38;;;;;;;;;;4997439;28;20068;-81
2022/10/26 14:37:46;;;;;;;9.48;3.20;;;;;;;;;;4997965;28;20022;-81
2022/10/26 14:40:19;;;;;;;7.25;3.90;;;;;;;;;;5013261;28;20014;-82
2022/10/26 14:42:51;;;;;;;7.07;3.60;;;;;;;;;;4995232;28;20019;-82
2022/10/26 14:45:37;;;;;;;7.73;3.40;;;;;;;;;;4978991;28;20079;-82
2022/10/26 14:48:04;;;;;;;9.13;3.28;;;;;;;;;;5004920;28;20411;-81
2022/10/26 14:50:33;;;;;;;8.98;3.47;;;;;;;;;;5002548;28;20526;-82
2022/10/26 14:53:01;;;;;;;11.55;3.78;;;;;;;;;;5002644;28;20022;-82